• Join FlightAware (Why Join?)
  • Login
  • US Flag 
04:11AM EDT


 

Airport Tracker/Info


-or-


 

Live Flight TrackerFlight Track Log ✈ C-GDBS ✈ 20-Sep-2013 ✈ CYCK / XCM - CYKZ

Flight Track Log - Related Links

Times and Time Zones

All times are in EDT time to prevent confusion due to time zone crossing. See the C-GDBS flight status page for this flight to view local times or setup timezone preferences in your user account.

Time Position Orientation Groundspeed Altitude Reporting Facility
EDT Latitude Longitude Course Direction KTS MPH feet Rate Location/Type
08:48PM 42.2519 -82.1325 196° South 141 162 2,500  Level Cleveland Center
08:49PM 42.2714 -82.0833 62° Northeast 166 191 3,000 540 Climbing Cleveland Center
08:50PM 42.3017 -82.0269 54° Northeast 176 203 3,700 480 Climbing Cleveland Center
08:51PM 42.3408 -81.9631 50° Northeast 186 214 4,000 480 Climbing Cleveland Center
08:52PM 42.3769 -81.9028 51° Northeast 200 230 4,700 480 Climbing Cleveland Center
08:53PM 42.4122 -81.8461 50° Northeast 197 227 5,000 180 Climbing Cleveland Center
08:54PM 42.4478 -81.7869 51° Northeast 199 229 5,100  Climbing Cleveland Center
08:55PM 42.4822 -81.7236 54° Northeast 204 235 5,000  Descending Cleveland Center
08:56PM 42.5186 -81.6619 51° Northeast 207 238 5,100  Climbing Cleveland Center
08:57PM 42.5542 -81.5997 52° Northeast 207 238 5,100 -60 Level Cleveland Center
08:58PM 42.5914 -81.5414 49° Northeast 206 237 5,000 -60 Descending Cleveland Center
08:59PM 42.6333 -81.4697 51° Northeast 205 236 5,000  Level Cleveland Center
09:00PM 42.6800 -81.4253 35° Northeast 205 236 5,000  Level Cleveland Center
09:01PM 42.7222 -81.3772 40° Northeast 199 229 5,000  Level Cleveland Center
09:02PM 42.7442 -81.3078 67° East 195 224 5,100  Climbing Cleveland Center
09:03PM 42.7606 -81.2328 73° East 199 229 5,100 -120 Level Cleveland Center
09:04PM 42.7789 -81.1567 72° East 204 235 4,900  Descending Cleveland Center
09:07PM 42.7833 -80.9667 88° East 200 230 5,200  Climbing Toronto Center
09:08PM 42.7833 -80.9000 90° East 190 219 5,000 -120 Descending Toronto Center
09:09PM 42.8167 -80.8667 36° Northeast 200 230 5,000  Level Toronto Center
09:10PM 42.8667 -80.8000 44° Northeast 200 230 5,000 -60 Level Toronto Center
09:11PM 42.9000 -80.7333 56° Northeast 200 230 4,900 -60 Descending Toronto Center
09:12PM 42.9333 -80.6500 61° Northeast 190 219 4,900  Level Toronto Center
09:13PM 42.9500 -80.5833 71° East 190 219 5,000  Climbing Toronto Center
09:14PM 42.9833 -80.5500 36° Northeast 190 219 5,000  Level Toronto Center
09:15PM 43.0000 -80.4833 71° East 190 219 5,000  Level Toronto Center
09:16PM 43.0333 -80.4167 56° Northeast 190 219 5,100  Climbing Toronto Center
09:17PM 43.0500 -80.3333 75° East 190 219 5,100  Level Toronto Center
09:18PM 43.0833 -80.3000 36° Northeast 190 219 5,100 -60 Level Toronto Center
09:19PM 43.1000 -80.2333 71° East 190 219 5,000  Descending Toronto Center
09:20PM 43.1333 -80.1667 56° Northeast 180 207 5,100  Climbing Toronto Center
09:21PM 43.1500 -80.1167 65° Northeast 190 219 5,100 -60 Level Toronto Center
09:22PM 43.1833 -80.0167 65° Northeast 200 230 5,000 -60 Descending Toronto Center
09:23PM 43.2000 -79.9833 56° Northeast 200 230 5,000  Level Toronto Center
09:24PM 43.2333 -79.8833 65° Northeast 200 230 5,000  Level Toronto Center
09:25PM 43.2500 -79.8333 65° Northeast 200 230 5,100  Climbing Toronto Center
09:26PM 43.2833 -79.7667 56° Northeast 200 230 5,100 -120 Level Toronto Center
09:27PM 43.3167 -79.7000 55° Northeast 200 230 4,900 -120 Descending Toronto Center
09:28PM 43.3500 -79.6333 55° Northeast 200 230 4,900  Level Toronto Center
09:29PM 43.3667 -79.5667 71° East 200 230 4,900  Level Toronto Center
09:30PM 43.4000 -79.5000 55° Northeast 200 230 5,000  Climbing Toronto Center
09:31PM 43.4333 -79.4500 47° Northeast 200 230 5,000 -60 Level Toronto Center
09:32PM 43.4667 -79.3833 55° Northeast 200 230 4,900  Descending Toronto Center
09:33PM 43.5000 -79.3167 55° Northeast 200 230 5,000 60 Climbing Toronto Center
09:34PM 43.5500 -79.2667 36° Northeast 200 230 5,100  Climbing Toronto Center
09:35PM 43.5833 -79.2167 47° Northeast 200 230 5,000 -60 Descending Toronto Center
09:36PM 43.6167 -79.1500 55° Northeast 200 230 5,000 -240 Level Toronto Center
09:37PM 43.6667 -79.1000 36° Northeast 200 230 4,600 -600 Descending Toronto Center
09:38PM 43.7167 -79.0500 36° Northeast 200 230 3,900 -780 Descending Toronto Center
09:39PM 43.7500 -79.0167 36° Northeast 200 230 3,100 -480 Descending Toronto Center
09:40PM 43.8000 -79.0500 334° Northwest 190 219 3,000 -60 Descending Toronto Center
09:41PM 43.8333 -79.0833 324° Northwest 160 184 3,000  Level Toronto Center
09:42PM 43.8500 -79.1167 305° West 160 184 3,000  Level Toronto Center
09:43PM 43.8500 -79.1667 270° West 130 150 3,100 -360 Climbing Toronto Center
09:44PM 43.8500 -79.2333 270° West 140 161 2,300 -780 Descending Toronto Center
09:45PM 43.8667 -79.2833 295° West 160 184 1,600 -480 Descending Toronto Center
09:46PM 43.8667 -79.3333 270° West 130 150 1,400 -360 Descending Toronto Center
09:47PM 43.8500 -79.3833 245° Southwest 110 127 900 -540 Descending Toronto Center